createdAt,value
2022-09-27T00:00:44.544Z,99283.95
2022-09-27T00:03:33.444Z,99279.39
2022-09-27T00:06:22.874Z,99282.34
2022-09-27T00:08:56.464Z,99280.49
2022-09-27T00:11:37.942Z,99281.67
2022-09-27T00:14:14.076Z,99276.77
2022-09-27T00:16:48.856Z,99269.52
2022-09-27T00:19:24.136Z,99269.55
2022-09-27T00:21:57.524Z,99264.64
2022-09-27T00:24:32.833Z,99262.73
2022-09-27T00:31:38.545Z,99262.55
2022-09-27T00:34:20.452Z,99262.98
2022-09-27T00:36:54.512Z,99264.70
2022-09-27T00:39:27.978Z,99264.98
2022-09-27T00:42:02.815Z,99260.41
2022-09-27T00:45:02.484Z,99261.13
2022-09-27T00:47:55.784Z,99257.90
2022-09-27T00:50:45.492Z,99249.67
2022-09-27T00:53:42.387Z,99250.61
2022-09-27T00:56:21.585Z,99249.73
2022-09-27T00:59:18.927Z,99248.70
2022-09-27T01:01:53.538Z,99246.55
2022-09-27T01:11:20.257Z,99240.86
2022-09-27T01:14:39.766Z,99238.98
2022-09-27T01:17:19.300Z,99229.14
2022-09-27T01:20:05.115Z,99229.31
2022-09-27T01:23:03.190Z,99226.71
2022-09-27T01:26:02.099Z,99222.58
2022-09-27T01:28:50.630Z,99220.42
2022-09-27T01:32:03.645Z,99219.80
2022-09-27T01:34:36.932Z,99222.09
2022-09-27T01:37:18.489Z,99221.09
2022-09-27T01:40:12.324Z,99221.39
2022-09-27T01:43:19.209Z,99220.98
2022-09-27T01:45:57.124Z,99219.05
2022-09-27T01:48:52.973Z,99220.84
2022-09-27T01:51:32.889Z,99217.38
2022-09-27T01:54:06.052Z,99216.69
2022-09-27T01:56:55.610Z,99213.23
2022-09-27T01:59:48.614Z,99210.89
2022-09-27T02:02:54.418Z,99212.98
2022-09-27T02:06:15.899Z,99211.30
2022-09-27T02:09:12.126Z,99217.09
2022-09-27T02:12:00.707Z,99215.55
2022-09-27T02:14:44.685Z,99215.01
2022-09-27T02:17:41.823Z,99215.35
2022-09-27T02:20:27.897Z,99219.85
2022-09-27T02:23:14.126Z,99220.12
2022-09-27T02:26:11.116Z,99208.54
2022-09-27T02:28:45.225Z,99202.87
2022-09-27T02:31:20.621Z,99201.10
2022-09-27T02:34:08.908Z,99197.27
2022-09-27T02:36:40.085Z,99199.32
2022-09-27T02:39:10.971Z,99198.32
2022-09-27T02:41:41.499Z,99198.35
2022-09-27T02:44:15.553Z,99198.93
2022-09-27T02:47:21.310Z,99200.70
2022-09-27T02:50:01.012Z,99202.30
2022-09-27T02:53:08.465Z,99195.23
2022-09-27T02:55:55.275Z,99191.58
2022-09-27T02:59:11.666Z,99187.59
2022-09-27T03:02:36.610Z,99182.05
2022-09-27T03:05:48.504Z,99178.94
2022-09-27T03:08:21.085Z,99171.72
2022-09-27T03:10:54.691Z,99174.39
2022-09-27T03:13:25.405Z,99176.56
2022-09-27T03:16:00.704Z,99177.10
2022-09-27T03:18:53.009Z,99168.58
2022-09-27T03:21:41.898Z,99166.97
2022-09-27T03:24:15.648Z,99165.56
2022-09-27T03:26:46.236Z,99166.93
2022-09-27T03:29:19.259Z,99166.27
2022-09-27T03:31:53.662Z,99161.85
2022-09-27T03:34:51.837Z,99157.94
2022-09-27T03:37:22.648Z,99156.23
2022-09-27T03:39:53.055Z,99153.96
2022-09-27T03:42:23.522Z,99148.95
2022-09-27T03:44:54.717Z,99146.33
2022-09-27T03:47:25.279Z,99140.11
2022-09-27T03:49:55.656Z,99142.90
2022-09-27T03:52:26.190Z,99140.86
2022-09-27T03:55:01.850Z,99140.55
2022-09-27T03:57:33.016Z,99137.65
2022-09-27T04:00:08.297Z,99137.45
2022-09-27T04:02:44.884Z,99133.19
2022-09-27T04:05:28.663Z,99130.37
2022-09-27T04:08:12.277Z,99129.61
2022-09-27T04:10:44.546Z,99133.89
2022-09-27T04:13:15.172Z,99130.81
2022-09-27T04:15:52.517Z,99134.48
2022-09-27T04:18:22.998Z,99128.98
2022-09-27T04:20:53.256Z,99131.30
2022-09-27T04:23:27.663Z,99132.56
2022-09-27T04:26:00.149Z,99138.20
2022-09-27T04:28:54.824Z,99149.70
2022-09-27T04:31:25.597Z,99150.45
2022-09-27T04:34:18.927Z,99150.42
2022-09-27T04:36:49.333Z,99154.39
2022-09-27T04:39:20.907Z,99158.22
2022-09-27T04:41:51.852Z,99154.34
2022-09-27T04:44:22.280Z,99153.66
2022-09-27T04:46:53.628Z,99156.38
2022-09-27T04:49:23.982Z,99158.19
2022-09-27T04:51:54.301Z,99153.71
2022-09-27T04:54:26.025Z,99153.66
2022-09-27T04:57:03.746Z,99150.02
2022-09-27T04:59:34.635Z,99149.34
2022-09-27T05:02:05.932Z,99147.23
2022-09-27T05:04:57.144Z,99140.35
2022-09-27T05:07:31.921Z,99137.25
2022-09-27T05:10:06.925Z,99132.98
2022-09-27T05:12:37.704Z,99132.89
2022-09-27T05:15:08.496Z,99134.62
2022-09-27T05:17:58.608Z,99135.00
2022-09-27T05:20:30.065Z,99131.22
2022-09-27T05:23:11.681Z,99128.23
2022-09-27T05:25:42.949Z,99121.16
2022-09-27T05:28:14.480Z,99122.38
2022-09-27T05:30:46.170Z,99120.16
2022-09-27T05:33:21.535Z,99117.55
2022-09-27T05:35:59.619Z,99120.56
2022-09-27T05:38:32.465Z,99116.10
2022-09-27T05:41:04.609Z,99115.95
2022-09-27T05:43:36.655Z,99118.52
2022-09-27T05:46:08.709Z,99121.63
2022-09-27T05:48:41.272Z,99129.06
2022-09-27T05:51:12.281Z,99130.88
2022-09-27T05:53:44.660Z,99128.29
2022-09-27T05:56:21.607Z,99129.92
2022-09-27T05:59:08.598Z,99128.72
2022-09-27T06:01:58.840Z,99127.60
2022-09-27T06:04:58.755Z,99124.09
2022-09-27T06:07:44.414Z,99124.18
2022-09-27T06:10:22.165Z,99123.92
2022-09-27T06:12:52.804Z,99122.54
2022-09-27T06:15:39.705Z,99125.31
2022-09-27T06:18:16.551Z,99131.58
2022-09-27T06:20:48.335Z,99132.20
2022-09-27T06:23:22.949Z,99130.79
2022-09-27T06:25:55.129Z,99132.61
2022-09-27T06:28:32.752Z,99125.63
2022-09-27T06:31:03.172Z,99125.00
2022-09-27T06:33:40.809Z,99121.32
2022-09-27T06:36:14.175Z,99120.24
2022-09-27T06:38:47.218Z,99116.80
2022-09-27T06:41:40.349Z,99110.41
2022-09-27T06:44:29.886Z,99110.19
2022-09-27T06:47:19.797Z,99113.05
2022-09-27T06:50:31.268Z,99115.13
2022-09-27T06:53:02.637Z,99111.31
2022-09-27T06:55:33.316Z,99110.95
2022-09-27T06:58:22.607Z,99113.02
2022-09-27T07:01:19.191Z,99117.14
2022-09-27T07:04:09.532Z,99119.84
2022-09-27T07:06:52.288Z,99119.98
2022-09-27T07:09:27.771Z,99122.83
2022-09-27T07:11:59.102Z,99124.02
2022-09-27T07:14:32.139Z,99127.77
2022-09-27T07:17:02.848Z,99127.88
2022-09-27T07:19:40.355Z,99129.44
2022-09-27T07:22:13.405Z,99130.59
2022-09-27T07:24:45.667Z,99129.14
2022-09-27T07:27:18.707Z,99126.25
2022-09-27T07:29:49.346Z,99118.94
2022-09-27T07:32:19.847Z,99121.28
2022-09-27T07:34:50.805Z,99118.94
2022-09-27T07:37:24.052Z,99117.64
2022-09-27T07:39:54.689Z,99119.33
2022-09-27T07:42:24.890Z,99121.36
2022-09-27T07:44:59.936Z,99120.49
2022-09-27T07:47:52.869Z,99110.73
2022-09-27T07:50:39.159Z,99104.05
2022-09-27T07:53:32.914Z,99107.16
2022-09-27T07:56:21.755Z,99111.84
2022-09-27T07:58:52.291Z,99113.89
2022-09-27T08:01:22.997Z,99117.47
2022-09-27T08:03:53.314Z,99113.08
2022-09-27T08:06:24.350Z,99107.47
2022-09-27T08:08:56.098Z,99107.59
2022-09-27T08:11:27.738Z,99111.56
2022-09-27T08:13:58.172Z,99112.40
2022-09-27T08:16:36.083Z,99107.80
2022-09-27T08:19:22.095Z,99103.88
2022-09-27T08:22:25.888Z,99101.14
2022-09-27T08:25:05.437Z,99094.98
2022-09-27T08:27:58.160Z,99099.48
2022-09-27T08:30:41.191Z,99103.80
2022-09-27T08:33:11.693Z,99101.08
2022-09-27T08:35:42.124Z,99099.00
2022-09-27T08:38:13.408Z,99101.02
2022-09-27T08:40:53.692Z,99102.97
2022-09-27T08:43:54.747Z,99101.27
2022-09-27T08:46:51.234Z,99101.02
2022-09-27T08:49:59.352Z,99103.05
2022-09-27T08:53:17.125Z,99102.51
2022-09-27T08:55:54.164Z,99103.18
2022-09-27T08:58:32.481Z,99103.73
2022-09-27T09:01:08.788Z,99106.05
2022-09-27T09:03:53.596Z,99105.16
2022-09-27T09:06:50.346Z,99103.90
2022-09-27T09:09:32.680Z,99109.35
2022-09-27T09:12:50.318Z,99108.80
2022-09-27T09:15:55.915Z,99109.79
2022-09-27T09:18:56.138Z,99117.75
2022-09-27T09:21:56.464Z,99115.04
2022-09-27T09:24:41.991Z,99115.11
2022-09-27T09:27:19.675Z,99112.73
2022-09-27T09:30:20.518Z,99117.82
2022-09-27T09:33:03.917Z,99112.39
2022-09-27T09:35:49.356Z,99111.45
2022-09-27T09:38:27.118Z,99110.42
2022-09-27T09:41:24.738Z,99111.25
2022-09-27T09:44:07.756Z,99105.99
2022-09-27T09:46:48.408Z,99107.58
2022-09-27T09:49:33.602Z,99111.64
2022-09-27T09:52:16.814Z,99117.80
2022-09-27T09:55:15.456Z,99110.02
2022-09-27T09:58:21.612Z,99112.11
2022-09-27T10:01:56.282Z,99112.18
2022-09-27T10:04:29.800Z,99112.44
2022-09-27T10:07:03.357Z,99107.77
2022-09-27T10:09:36.905Z,99106.44
2022-09-27T10:12:28.049Z,99101.84
2022-09-27T10:15:03.445Z,99094.20
2022-09-27T10:17:46.498Z,99091.06
2022-09-27T10:20:28.973Z,99085.50
2022-09-27T10:23:08.366Z,99079.96
2022-09-27T10:25:56.882Z,99077.64
2022-09-27T10:28:46.313Z,99074.83
2022-09-27T10:31:22.392Z,99073.16
2022-09-27T10:34:06.944Z,99068.48
2022-09-27T10:36:43.269Z,99067.48
2022-09-27T10:39:24.611Z,99061.24
2022-09-27T10:42:00.652Z,99062.31
2022-09-27T10:44:42.417Z,99058.35
2022-09-27T10:47:26.909Z,99058.23
2022-09-27T10:50:48.897Z,99055.53
2022-09-27T10:53:28.464Z,99049.92
2022-09-27T10:56:03.727Z,99044.88
2022-09-27T10:58:40.782Z,99040.75
2022-09-27T11:01:17.427Z,99043.84
2022-09-27T11:04:06.924Z,99041.98
2022-09-27T11:06:39.679Z,99041.04
2022-09-27T11:09:20.685Z,99038.95
2022-09-27T11:12:15.192Z,99037.77
2022-09-27T11:15:16.536Z,99034.95
2022-09-27T11:18:14.955Z,99034.25
2022-09-27T11:21:06.976Z,99033.65
2022-09-27T11:24:14.326Z,99030.14
2022-09-27T11:27:07.113Z,99028.32
2022-09-27T11:30:00.250Z,99024.55
2022-09-27T11:33:02.992Z,99020.73
2022-09-27T11:35:47.722Z,99014.25
2022-09-27T11:38:53.714Z,99011.02
2022-09-27T11:41:58.686Z,99009.48
2022-09-27T11:45:19.518Z,99011.96
2022-09-27T11:47:51.161Z,99013.73
2022-09-27T11:50:33.912Z,99008.78
2022-09-27T11:53:26.179Z,99004.35
2022-09-27T11:56:43.308Z,99001.95
2022-09-27T11:59:24.979Z,99003.58
2022-09-27T12:02:18.226Z,99001.11
2022-09-27T12:05:00.172Z,99004.49
2022-09-27T12:07:58.710Z,99005.61
2022-09-27T12:10:36.170Z,99004.96
2022-09-27T12:13:35.247Z,99003.85
2022-09-27T12:16:20.113Z,98996.91
2022-09-27T12:19:21.173Z,98991.14
2022-09-27T12:22:59.952Z,98986.71
2022-09-27T12:26:30.529Z,98982.50
2022-09-27T12:29:45.665Z,98982.76
2022-09-27T12:32:50.975Z,98983.09
2022-09-27T12:36:17.165Z,98979.22
2022-09-27T12:39:09.247Z,98978.95
2022-09-27T12:41:50.132Z,98977.66
2022-09-27T12:44:44.916Z,98979.77
2022-09-27T12:48:16.120Z,98976.36
2022-09-27T12:51:52.940Z,98977.77
2022-09-27T12:54:51.867Z,98976.09
2022-09-27T12:57:52.253Z,98972.00
2022-09-27T13:00:44.252Z,98965.81
2022-09-27T13:03:36.297Z,98963.45
2022-09-27T13:06:40.748Z,98962.99
2022-09-27T13:10:09.247Z,98960.48
2022-09-27T13:13:08.037Z,98952.66
2022-09-27T13:16:07.067Z,98947.73
2022-09-27T13:18:56.573Z,98942.41
2022-09-27T13:22:05.183Z,98930.25
2022-09-27T13:25:10.146Z,98926.27
2022-09-27T13:28:35.828Z,98915.17
2022-09-27T13:31:33.884Z,98906.80
2022-09-27T13:34:19.914Z,98908.21
2022-09-27T13:37:46.785Z,98898.18
2022-09-27T13:40:32.559Z,98898.51
2022-09-27T13:44:05.536Z,98893.13
2022-09-27T13:47:03.393Z,98891.79
2022-09-27T13:49:55.106Z,98894.80
2022-09-27T13:52:59.314Z,98893.67
2022-09-27T13:55:59.440Z,98895.31
2022-09-27T13:58:46.666Z,98895.81
2022-09-27T14:02:30.410Z,98895.53
2022-09-27T14:05:15.478Z,98888.30
2022-09-27T14:08:00.144Z,98887.38
2022-09-27T14:10:40.278Z,98880.58
2022-09-27T14:14:00.191Z,98890.64
2022-09-27T14:16:46.716Z,98886.12
2022-09-27T14:19:37.548Z,98882.10
2022-09-27T14:22:29.089Z,98881.61
2022-09-27T14:25:22.194Z,98876.56
2022-09-27T14:28:15.218Z,98874.67
2022-09-27T14:31:29.881Z,98869.29
2022-09-27T14:34:31.973Z,98866.58
2022-09-27T14:37:28.014Z,98863.69
2022-09-27T14:40:20.174Z,98867.40
2022-09-27T14:43:05.264Z,98866.84
2022-09-27T14:45:57.042Z,98866.73
2022-09-27T14:49:05.198Z,98868.51
2022-09-27T14:51:49.114Z,98868.05
2022-09-27T14:54:37.135Z,98867.39
2022-09-27T14:57:24.204Z,98865.52
2022-09-27T15:00:41.890Z,98862.14
2022-09-27T15:03:27.203Z,98865.05
2022-09-27T15:06:16.110Z,98865.24
2022-09-27T15:08:58.014Z,98861.17
2022-09-27T15:11:51.893Z,98862.89
2022-09-27T15:14:41.515Z,98859.60
2022-09-27T15:17:46.131Z,98857.80
2022-09-27T15:20:35.278Z,98856.16
2022-09-27T15:23:27.016Z,98853.39
2022-09-27T15:26:27.947Z,98854.77
2022-09-27T15:29:25.154Z,98854.98
2022-09-27T15:32:07.160Z,98851.98
2022-09-27T15:35:11.145Z,98849.48
2022-09-27T15:38:05.118Z,98848.80
2022-09-27T15:40:47.132Z,98849.98
2022-09-27T15:44:05.230Z,98852.06
2022-09-27T15:46:54.151Z,98847.97
2022-09-27T15:49:41.157Z,98850.59
2022-09-27T15:52:26.493Z,98848.13
2022-09-27T15:55:05.130Z,98848.80
2022-09-27T15:57:51.073Z,98844.35
2022-09-27T16:00:44.061Z,98845.01
2022-09-27T16:03:32.268Z,98839.86
2022-09-27T16:06:32.970Z,98840.50
2022-09-27T16:09:35.401Z,98842.14
2022-09-27T16:12:54.067Z,98835.11
2022-09-27T16:15:51.127Z,98842.19
2022-09-27T16:22:29.365Z,98843.39
2022-09-27T16:25:24.170Z,98844.32
2022-09-27T16:28:26.071Z,98842.96
2022-09-27T16:31:24.050Z,98842.47
2022-09-27T16:34:09.895Z,98844.90
2022-09-27T16:36:44.160Z,98847.16
2022-09-27T16:39:43.943Z,98847.42
2022-09-27T16:42:29.916Z,98850.75
2022-09-27T16:45:18.307Z,98853.41
2022-09-27T16:48:05.121Z,98855.96
2022-09-27T16:50:58.258Z,98856.94
2022-09-27T16:53:48.159Z,98857.65
2022-09-27T16:56:50.279Z,98854.94
2022-09-27T16:59:58.079Z,98855.11
2022-09-27T17:02:54.971Z,98850.52
2022-09-27T17:05:34.331Z,98851.91
2022-09-27T17:08:17.815Z,98853.99
2022-09-27T17:11:10.969Z,98854.08
2022-09-27T17:13:58.924Z,98855.56
2022-09-27T17:16:34.969Z,98858.05
2022-09-27T17:19:19.652Z,98854.99
2022-09-27T17:22:03.015Z,98858.45
2022-09-27T17:24:47.955Z,98861.97
2022-09-27T17:27:25.817Z,98865.23
2022-09-27T17:30:10.952Z,98868.11
2022-09-27T17:32:52.970Z,98862.23
2022-09-27T17:35:33.004Z,98862.64
2022-09-27T17:38:07.935Z,98864.70
2022-09-27T17:40:45.972Z,98863.59
2022-09-27T17:43:50.520Z,98868.61
2022-09-27T17:46:46.077Z,98868.61
2022-09-27T17:50:00.419Z,98870.36
2022-09-27T17:52:54.887Z,98869.28
2022-09-27T17:55:43.029Z,98868.84
2022-09-27T17:58:34.208Z,98873.02
2022-09-27T18:01:31.393Z,98871.66
2022-09-27T18:04:20.167Z,98872.88
2022-09-27T18:07:03.306Z,98873.36
2022-09-27T18:09:51.917Z,98864.66
2022-09-27T18:12:44.183Z,98858.08
2022-09-27T18:15:53.447Z,98860.56
2022-09-27T18:18:45.554Z,98861.70
2022-09-27T18:21:27.952Z,98859.91
2022-09-27T18:24:15.481Z,98863.23
2022-09-27T18:27:16.569Z,98862.08
2022-09-27T18:30:03.849Z,98857.50
2022-09-27T18:35:37.852Z,98862.09
2022-09-27T18:39:01.844Z,98863.01
2022-09-27T18:41:48.217Z,98862.79
2022-09-27T18:45:25.276Z,98867.52
2022-09-27T18:48:43.347Z,98873.20
2022-09-27T18:51:38.165Z,98866.32
2022-09-27T18:54:23.290Z,98864.73
2022-09-27T18:57:13.129Z,98865.63
2022-09-27T18:59:53.063Z,98865.52
2022-09-27T19:02:41.534Z,98877.71
2022-09-27T19:05:35.296Z,98880.07
2022-09-27T19:08:09.343Z,98879.32
2022-09-27T19:11:47.839Z,98878.41
2022-09-27T19:14:25.188Z,98877.10
2022-09-27T19:17:23.156Z,98870.63
2022-09-27T19:20:11.966Z,98871.39
2022-09-27T19:23:48.172Z,98875.48
2022-09-27T19:27:04.466Z,98874.59
2022-09-27T19:29:41.073Z,98874.23
2022-09-27T19:32:44.017Z,98876.12
2022-09-27T19:35:51.265Z,98882.75
2022-09-27T19:38:36.891Z,98881.17
2022-09-27T19:41:22.086Z,98878.52
2022-09-27T19:44:16.276Z,98873.48
2022-09-27T19:46:49.879Z,98869.80
2022-09-27T19:49:44.168Z,98871.14
2022-09-27T19:52:28.221Z,98873.23
2022-09-27T19:55:18.935Z,98875.02
2022-09-27T19:58:07.062Z,98877.25
2022-09-27T20:00:56.343Z,98883.31
2022-09-27T20:04:00.625Z,98887.33
2022-09-27T20:06:50.034Z,98891.68
2022-09-27T20:09:39.989Z,98892.71
2022-09-27T20:12:14.917Z,98890.00
2022-09-27T20:15:01.700Z,98892.46
2022-09-27T20:17:37.925Z,98894.89
2022-09-27T20:20:28.761Z,98893.67
2022-09-27T20:23:08.994Z,98893.27
2022-09-27T20:25:45.741Z,98895.64
2022-09-27T20:28:29.814Z,98895.67
2022-09-27T20:31:07.682Z,98895.95
2022-09-27T20:33:44.571Z,98902.35
2022-09-27T20:36:22.105Z,98903.91
2022-09-27T20:39:10.095Z,98906.48
2022-09-27T20:41:51.709Z,98899.39
2022-09-27T20:44:35.197Z,98896.06
2022-09-27T20:47:28.752Z,98888.48
2022-09-27T20:50:06.845Z,98883.52
2022-09-27T20:52:42.975Z,98885.86
2022-09-27T20:55:26.916Z,98883.77
2022-09-27T20:58:16.742Z,98885.77
2022-09-27T21:01:12.947Z,98883.50
2022-09-27T21:03:55.807Z,98886.77
2022-09-27T21:06:32.852Z,98881.92
2022-09-27T21:09:19.138Z,98878.69
2022-09-27T21:11:57.897Z,98876.91
2022-09-27T21:14:41.592Z,98874.86
2022-09-27T21:17:36.808Z,98872.16
2022-09-27T21:20:11.972Z,98876.03
2022-09-27T21:23:04.771Z,98871.55
2022-09-27T21:25:41.905Z,98869.16
2022-09-27T21:28:33.832Z,98870.27
2022-09-27T21:31:23.903Z,98873.69
2022-09-27T21:34:08.774Z,98875.02
2022-09-27T21:36:52.545Z,98874.30
2022-09-27T21:39:38.705Z,98867.69
2022-09-27T21:42:21.888Z,98865.44
2022-09-27T21:44:58.779Z,98861.07
2022-09-27T21:47:51.829Z,98859.70
2022-09-27T21:50:43.006Z,98854.33
2022-09-27T21:53:32.611Z,98855.85
2022-09-27T21:56:12.721Z,98851.41
2022-09-27T21:58:56.839Z,98849.57
2022-09-27T22:01:40.711Z,98846.57
2022-09-27T22:04:20.856Z,98843.90
2022-09-27T22:07:10.809Z,98839.40
2022-09-27T22:09:50.677Z,98835.23
2022-09-27T22:12:32.677Z,98836.80
2022-09-27T22:15:12.751Z,98833.40
2022-09-27T22:17:57.586Z,98831.19
2022-09-27T22:20:47.126Z,98829.14
2022-09-27T22:23:38.681Z,98825.19
2022-09-27T22:26:26.699Z,98822.38
2022-09-27T22:29:16.698Z,98812.80
2022-09-27T22:32:01.695Z,98813.04
2022-09-27T22:34:40.627Z,98808.77
2022-09-27T22:37:26.780Z,98800.48
2022-09-27T22:40:08.727Z,98804.11
2022-09-27T22:42:54.689Z,98807.61
2022-09-27T22:45:41.731Z,98802.64
2022-09-27T22:48:20.615Z,98799.19
2022-09-27T22:51:08.374Z,98799.61
2022-09-27T22:53:47.695Z,98794.61
2022-09-27T22:56:36.827Z,98793.34
2022-09-27T22:59:19.878Z,98800.23
2022-09-27T23:02:12.490Z,98800.59
2022-09-27T23:05:05.758Z,98797.79
2022-09-27T23:08:02.905Z,98796.73
2022-09-27T23:10:46.736Z,98799.02
2022-09-27T23:13:35.710Z,98803.02
2022-09-27T23:16:17.523Z,98802.31
2022-09-27T23:19:03.557Z,98799.38
2022-09-27T23:21:45.607Z,98802.14
2022-09-27T23:24:31.492Z,98796.13
2022-09-27T23:27:38.637Z,98799.02
2022-09-27T23:30:21.532Z,98799.86
2022-09-27T23:33:12.901Z,98795.93
2022-09-27T23:35:57.700Z,98790.91
2022-09-27T23:38:54.744Z,98789.91
2022-09-27T23:41:49.605Z,98794.31
2022-09-27T23:44:36.537Z,98790.71
2022-09-27T23:47:30.651Z,98781.55
2022-09-27T23:50:27.846Z,98783.23
2022-09-27T23:53:22.595Z,98780.25
2022-09-27T23:56:10.752Z,98775.88
2022-09-27T23:58:53.651Z,98776.42
